Time;durP1;ratioP1;P1;durP2;ratioP2;P2;SDS_P1;SDS_P2;PMS_P1;PMS_P2;Temp;Humidity;BMP_temperature;BMP_pressure;BME280_temperature;BME280_humidity;BME280_pressure;Samples;Min_cycle;Max_cycle;Signal;HPM_P1;HPM_P2
2022/04/10 00:02:23;;;;;;;39.60;20.10;;;;;;;1.44;83.25;97857.05;105901;1283;22780;-76
2022/04/10 00:04:51;;;;;;;37.20;20.70;;;;;;;1.45;83.51;97862.25;105449;1284;137245;-77
2022/04/10 00:07:32;;;;;;;34.80;20.20;;;;;;;1.45;83.27;97866.35;105804;1283;22611;-77
2022/04/10 00:09:59;;;;;;;36.20;20.10;;;;;;;1.45;83.04;97865.15;105530;1282;24249;-77
2022/04/10 00:12:41;;;;;;;36.30;20.50;;;;;;;1.46;83.24;97870.39;105514;1283;138674;-77
2022/04/10 00:15:22;;;;;;;40.50;21.80;;;;;;;1.46;83.40;97871.92;105588;1282;24326;-77
2022/04/10 00:17:49;;;;;;;41.60;21.90;;;;;;;1.48;83.34;97879.44;105599;1284;137909;-78
2022/04/10 00:20:16;;;;;;;41.20;22.60;;;;;;;1.46;83.23;97879.52;105575;1283;22708;-78
2022/04/10 00:22:46;;;;;;;39.40;22.20;;;;;;;1.45;83.26;97885.91;105636;1283;137976;-78
2022/04/10 00:25:16;;;;;;;45.60;23.20;;;;;;;1.43;82.93;97888.61;105584;1283;22576;-78
2022/04/10 00:27:44;;;;;;;37.40;21.60;;;;;;;1.42;83.10;97888.75;105694;1283;22691;-78
2022/04/10 00:30:14;;;;;;;46.00;23.90;;;;;;;1.40;82.95;97886.70;105571;1282;137217;-78
2022/04/10 00:32:42;;;;;;;30.70;17.10;;;;;;;1.38;83.05;97884.15;105442;1284;22557;-78
2022/04/10 00:35:10;;;;;;;43.70;24.80;;;;;;;1.31;83.04;97885.86;105611;1282;137323;-79
2022/04/10 00:37:39;;;;;;;42.20;23.50;;;;;;;1.24;82.90;97892.83;105697;1283;22611;-78
2022/04/10 00:40:20;;;;;;;47.90;24.90;;;;;;;1.20;83.25;97894.01;105646;1283;22720;-78
2022/04/10 00:42:49;;;;;;;50.00;25.10;;;;;;;1.16;83.26;97888.80;105420;1283;137909;-78
2022/04/10 00:45:30;;;;;;;43.60;24.80;;;;;;;1.11;83.62;97886.70;105383;1284;25414;-78
2022/04/10 00:48:11;;;;;;;51.70;28.20;;;;;;;1.06;83.53;97882.31;105653;1283;137132;-78
2022/04/10 00:53:34;;;;;;;47.30;27.60;;;;;;;0.99;83.85;97902.73;105608;1284;137984;-79
2022/04/10 00:56:01;;;;;;;50.90;26.50;;;;;;;0.96;83.94;97904.86;105509;1284;23014;-79
2022/04/10 00:58:43;;;;;;;48.70;27.50;;;;;;;0.97;84.29;97906.71;105769;1282;137429;-79
2022/04/10 01:01:10;;;;;;;43.40;25.30;;;;;;;0.94;84.33;97905.25;105724;1282;22693;-79
2022/04/10 01:03:37;;;;;;;52.30;30.10;;;;;;;0.90;84.29;97902.67;105696;1284;22671;-78
2022/04/10 01:06:05;;;;;;;54.00;28.30;;;;;;;0.84;84.19;97903.54;105533;1284;138764;-79
2022/04/10 01:08:33;;;;;;;47.80;27.00;;;;;;;0.81;84.44;97903.68;105771;1284;22766;-82
2022/04/10 01:11:00;;;;;;;49.70;26.70;;;;;;;0.76;84.33;97905.84;105444;1282;137772;-79
2022/04/10 01:13:42;;;;;;;53.20;27.40;;;;;;;0.73;84.69;97907.14;105578;1284;25466;-79
2022/04/10 01:16:24;;;;;;;44.10;24.90;;;;;;;0.73;84.90;97907.64;105797;1282;22560;-80
2022/04/10 01:19:06;;;;;;;49.10;26.10;;;;;;;0.73;85.03;97910.85;105574;1282;137378;-80
2022/04/10 01:21:44;;;;;;;51.40;27.60;;;;;;;0.73;84.85;97912.05;105593;1282;24362;-80
2022/04/10 01:24:12;;;;;;;46.50;27.40;;;;;;;0.74;85.04;97905.54;105628;1283;138002;-80
2022/04/10 01:26:41;;;;;;;43.20;27.00;;;;;;;0.76;85.04;97910.79;105807;1283;25336;-80
2022/04/10 01:29:14;;;;;;;49.30;27.80;;;;;;;0.79;85.00;97917.81;105616;1283;137264;-80
2022/04/10 01:31:46;;;;;;;42.50;25.30;;;;;;;0.80;85.17;97909.45;105743;1282;24277;-80
2022/04/10 01:34:16;;;;;;;52.70;28.00;;;;;;;0.80;85.13;97913.05;105609;1283;22531;-82
2022/04/10 01:37:00;;;;;;;46.30;26.00;;;;;;;0.79;85.17;97910.52;105253;1283;137782;-80
2022/04/10 01:39:27;;;;;;;45.90;25.70;;;;;;;0.80;84.87;97914.48;105638;1282;23329;-80
2022/04/10 01:42:08;;;;;;;45.90;24.70;;;;;;;0.80;85.13;97912.27;105582;1282;137568;-80
2022/04/10 01:44:42;;;;;;;46.50;25.90;;;;;;;0.80;84.88;97916.23;105783;1283;25319;-80
2022/04/10 01:47:12;;;;;;;49.10;26.80;;;;;;;0.79;84.93;97919.43;105739;1283;137447;-80
2022/04/10 01:49:40;;;;;;;49.50;28.70;;;;;;;0.75;84.87;97919.48;105667;1283;24326;-80
2022/04/10 01:52:08;;;;;;;44.30;27.40;;;;;;;0.74;84.65;97922.48;105697;1283;25377;-80
2022/04/10 01:54:49;;;;;;;44.50;25.70;;;;;;;0.75;84.83;97921.83;105520;1283;137835;-80
2022/04/10 01:57:16;;;;;;;44.40;25.20;;;;;;;0.76;84.86;97920.34;105638;1283;24234;-82
2022/04/10 01:59:44;;;;;;;50.80;28.40;;;;;;;0.74;84.70;97924.42;105617;1283;137891;-80
2022/04/10 02:02:25;;;;;;;47.70;26.50;;;;;;;0.73;85.05;97926.64;105636;1283;25461;-80
2022/04/10 02:05:09;;;;;;;50.70;27.60;;;;;;;0.71;85.03;97928.40;105604;1283;138464;-80
2022/04/10 02:07:50;;;;;;;48.70;26.80;;;;;;;0.68;84.72;97927.42;105643;1283;23033;-80
2022/04/10 02:10:18;;;;;;;47.30;27.10;;;;;;;0.71;84.98;97935.25;105713;1283;25378;-80
2022/04/10 02:12:47;;;;;;;45.80;27.60;;;;;;;0.71;85.18;97938.80;105655;1283;137404;-80
2022/04/10 02:15:15;;;;;;;46.90;28.90;;;;;;;0.70;85.03;97938.29;105817;1283;25391;-80
2022/04/10 02:17:42;;;;;;;50.10;29.30;;;;;;;0.67;84.86;97935.05;105546;1284;137151;-80
2022/04/10 02:20:09;;;;;;;53.50;29.50;;;;;;;0.64;85.17;97942.36;105357;1284;22584;-79
2022/04/10 02:22:37;;;;;;;45.70;26.40;;;;;;;0.64;85.11;97947.18;105705;1283;22547;-79
2022/04/10 02:25:04;;;;;;;45.60;27.00;;;;;;;0.63;85.00;97951.45;105730;1283;137686;-79
2022/04/10 02:27:33;;;;;;;49.30;27.80;;;;;;;0.62;85.24;97952.41;105729;1283;25582;-79
2022/04/10 02:30:01;;;;;;;47.20;26.30;;;;;;;0.64;85.21;97953.31;105539;1283;137840;-79
2022/04/10 02:32:30;;;;;;;52.20;27.50;;;;;;;0.60;85.11;97954.48;105928;1282;22587;-79
2022/04/10 02:34:57;;;;;;;49.20;29.10;;;;;;;0.58;85.19;97952.95;105661;1283;138178;-79
2022/04/10 02:37:24;;;;;;;45.00;27.50;;;;;;;0.59;85.38;97955.15;105482;1283;22696;-79
2022/04/10 02:40:07;;;;;;;46.80;26.90;;;;;;;0.58;85.23;97957.56;105704;1283;25382;-79
2022/04/10 02:42:34;;;;;;;45.60;27.50;;;;;;;0.57;85.39;97956.61;105463;1283;137297;-81
2022/04/10 02:45:03;;;;;;;47.60;26.70;;;;;;;0.58;85.28;97963.21;105638;1283;22599;-79
2022/04/10 02:47:44;;;;;;;52.60;28.10;;;;;;;0.56;85.20;97961.05;105607;1284;137603;-79
2022/04/10 02:50:13;;;;;;;51.30;26.50;;;;;;;0.53;85.12;97964.41;105625;1282;22646;-81
2022/04/10 02:52:54;;;;;;;49.40;26.90;;;;;;;0.49;85.21;97968.41;105524;1283;138291;-79
2022/04/10 02:55:35;;;;;;;44.40;25.20;;;;;;;0.48;85.45;97969.55;105613;1283;24434;-79
2022/04/10 02:58:02;;;;;;;45.30;25.90;;;;;;;0.47;85.30;97977.14;105548;1284;22557;-79
2022/04/10 03:00:30;;;;;;;44.60;25.70;;;;;;;0.45;85.35;97979.75;105587;1283;137605;-79
2022/04/10 03:02:57;;;;;;;52.00;26.50;;;;;;;0.44;85.61;97984.06;105664;1283;25368;-79
2022/04/10 03:05:26;;;;;;;46.50;26.00;;;;;;;0.44;85.51;97981.17;105523;1283;138602;-78
2022/04/10 03:07:54;;;;;;;44.90;26.10;;;;;;;0.45;85.72;97982.67;105833;1283;22561;-78
2022/04/10 03:10:22;;;;;;;46.40;25.90;;;;;;;0.48;85.70;97987.80;105692;1283;22572;-78
2022/04/10 03:13:03;;;;;;;47.40;26.60;;;;;;;0.49;85.52;97991.20;105403;1283;136906;-78
2022/04/10 03:15:30;;;;;;;43.30;26.20;;;;;;;0.49;85.59;97993.23;105452;1283;22736;-78
2022/04/10 03:18:11;;;;;;;47.80;27.60;;;;;;;0.46;85.46;97996.61;105596;1283;137451;-78
2022/04/10 03:20:38;;;;;;;43.20;25.70;;;;;;;0.43;85.28;98005.36;105606;1283;22546;-78
2022/04/10 03:23:08;;;;;;;47.80;27.70;;;;;;;0.40;85.41;98008.39;105476;1283;138420;-78
2022/04/10 03:25:37;;;;;;;43.20;24.70;;;;;;;0.38;85.42;98012.45;105708;1283;24308;-78
2022/04/10 03:28:18;;;;;;;43.00;25.90;;;;;;;0.35;85.62;98016.66;105578;1283;24271;-78
2022/04/10 03:31:00;;;;;;;48.70;28.30;;;;;;;0.33;85.50;98012.80;105539;1283;137315;-77
2022/04/10 03:33:28;;;;;;;45.10;27.20;;;;;;;0.30;85.41;98015.30;105670;1283;25261;-77
2022/04/10 03:35:56;;;;;;;48.30;26.90;;;;;;;0.28;85.36;98019.31;105507;1283;137807;-78
2022/04/10 03:38:23;;;;;;;50.70;27.10;;;;;;;0.26;85.41;98023.93;105628;1283;24335;-78
2022/04/10 03:40:50;;;;;;;41.50;25.70;;;;;;;0.25;85.49;98031.01;105724;1283;138094;-78
2022/04/10 03:43:17;;;;;;;42.40;25.20;;;;;;;0.25;85.59;98036.90;105863;1280;22541;-77
2022/04/10 03:45:44;;;;;;;43.50;25.80;;;;;;;0.24;85.67;98038.83;105902;1280;22687;-77
2022/04/10 03:48:12;;;;;;;47.00;23.20;;;;;;;0.21;85.64;98042.35;106046;1280;137515;-77
2022/04/10 03:50:40;;;;;;;43.00;24.30;;;;;;;0.21;85.69;98044.48;105881;1280;24308;-78
2022/04/10 03:53:07;;;;;;;39.00;23.70;;;;;;;0.21;85.61;98047.89;105790;1280;137598;-76
2022/04/10 03:55:35;;;;;;;46.40;24.20;;;;;;;0.22;85.67;98047.83;105884;1281;28929;-77
2022/04/10 03:58:03;;;;;;;45.10;24.90;;;;;;;0.21;85.72;98048.85;105806;1281;25405;-77
2022/04/10 04:00:30;;;;;;;42.40;26.10;;;;;;;0.19;85.70;98046.77;105440;1282;137660;-77
2022/04/10 04:03:00;;;;;;;44.80;25.80;;;;;;;0.16;85.68;98055.77;105778;1281;24310;-77
2022/04/10 04:05:28;;;;;;;44.70;23.90;;;;;;;0.15;85.59;98055.42;105696;1280;138088;-77
2022/04/10 04:07:56;;;;;;;41.90;24.60;;;;;;;0.15;85.60;98059.57;105614;1281;25507;-77
2022/04/10 04:10:24;;;;;;;42.30;25.30;;;;;;;0.15;85.78;98063.61;105777;1281;22569;-77
2022/04/10 04:12:51;;;;;;;42.70;24.50;;;;;;;0.17;85.94;98067.34;105710;1280;137621;-77
2022/04/10 04:15:19;;;;;;;43.10;25.10;;;;;;;0.16;85.77;98072.20;105769;1280;22541;-77
2022/04/10 04:18:00;;;;;;;40.50;23.60;;;;;;;0.18;85.77;98076.63;105796;1281;137922;-77
2022/04/10 04:20:27;;;;;;;44.70;25.20;;;;;;;0.21;85.88;98076.00;105749;1281;22806;-77
2022/04/10 04:22:54;;;;;;;40.50;23.40;;;;;;;0.22;85.62;98080.25;105612;1281;137625;-77
2022/04/10 04:25:21;;;;;;;40.40;23.00;;;;;;;0.23;85.86;98085.09;105985;1280;24269;-77
2022/04/10 04:27:49;;;;;;;43.20;24.30;;;;;;;0.24;85.75;98090.05;105949;1280;22554;-76
2022/04/10 04:30:16;;;;;;;45.80;25.60;;;;;;;0.23;85.75;98094.31;105771;1280;137237;-76
2022/04/10 04:32:45;;;;;;;43.40;25.10;;;;;;;0.21;85.42;98100.79;105750;1280;24317;-76
2022/04/10 04:35:14;;;;;;;50.40;26.50;;;;;;;0.17;85.45;98105.08;105805;1281;138293;-77
2022/04/10 04:37:41;;;;;;;40.10;22.70;;;;;;;0.18;85.64;98102.94;105967;1280;25232;-76
2022/04/10 04:40:24;;;;;;;41.40;24.80;;;;;;;0.21;85.64;98112.78;105887;1281;22651;-76
2022/04/10 04:42:53;;;;;;;42.70;24.20;;;;;;;0.24;86.15;98112.90;105814;1281;137131;-76
2022/04/10 04:45:22;;;;;;;44.70;26.80;;;;;;;0.28;85.83;98118.02;105913;1280;25348;-76
2022/04/10 04:47:59;;;;;;;42.70;26.70;;;;;;;0.32;85.71;98124.54;105737;1280;139373;-76
2022/04/10 04:50:27;;;;;;;46.60;26.70;;;;;;;0.35;85.63;98122.39;105873;1280;22592;-76
2022/04/10 04:52:54;;;;;;;42.10;24.90;;;;;;;0.41;85.69;98127.91;105860;1280;138100;-76
2022/04/10 04:55:21;;;;;;;48.90;26.10;;;;;;;0.48;85.71;98132.67;105814;1280;24435;-76
2022/04/10 04:57:49;;;;;;;44.50;24.10;;;;;;;0.51;85.45;98136.58;105777;1280;25258;-78
2022/04/10 05:00:16;;;;;;;43.50;25.30;;;;;;;0.54;85.66;98135.73;105745;1280;137163;-76
2022/04/10 05:03:02;;;;;;;47.10;26.80;;;;;;;0.59;85.21;98137.42;105825;1281;22652;-76
2022/04/10 05:05:43;;;;;;;45.70;28.00;;;;;;;0.60;85.46;98139.94;105810;1281;137950;-76
2022/04/10 05:08:15;;;;;;;47.10;26.10;;;;;;;0.62;85.28;98140.79;105914;1281;25646;-77
2022/04/10 05:10:43;;;;;;;48.50;26.40;;;;;;;0.61;85.18;98142.27;105936;1281;24270;-77
2022/04/10 05:13:10;;;;;;;41.40;25.20;;;;;;;0.64;85.29;98142.25;105696;1280;137089;-77
2022/04/10 05:15:38;;;;;;;45.30;28.30;;;;;;;0.66;85.49;98142.94;105905;1280;24640;-76
2022/04/10 05:18:05;;;;;;;43.00;26.40;;;;;;;0.69;85.51;98147.87;105621;1279;137529;-77
2022/04/10 05:20:33;;;;;;;44.80;27.00;;;;;;;0.70;85.08;98150.33;105875;1280;23941;-77
2022/04/10 05:23:10;;;;;;;40.90;24.40;;;;;;;0.70;84.85;98145.30;105996;1280;138875;-76
2022/04/10 05:25:38;;;;;;;40.00;23.20;;;;;;;0.67;84.92;98148.48;105902;1279;25554;-77
2022/04/10 05:28:06;;;;;;;41.90;26.00;;;;;;;0.65;85.21;98153.23;106007;1280;22701;-77
2022/04/10 05:30:34;;;;;;;40.10;25.70;;;;;;;0.66;85.52;98157.55;105818;1280;137563;-77
2022/04/10 05:33:04;;;;;;;42.60;24.90;;;;;;;0.67;85.63;98157.74;105885;1280;22543;-77
2022/04/10 05:35:31;;;;;;;40.80;23.50;;;;;;;0.69;85.88;98155.44;106095;1280;138353;-77
2022/04/10 05:37:59;;;;;;;35.50;23.10;;;;;;;0.71;85.78;98152.98;106050;1280;22534;-76
2022/04/10 05:40:27;;;;;;;40.70;24.30;;;;;;;0.77;85.92;98158.55;105893;1280;22547;-76
2022/04/10 05:42:55;;;;;;;37.40;24.80;;;;;;;0.81;85.94;98158.43;105826;1280;137743;-76
2022/04/10 05:45:23;;;;;;;45.20;26.60;;;;;;;0.86;85.88;98159.64;106124;1279;22561;-77
2022/04/10 05:47:52;;;;;;;41.00;26.30;;;;;;;0.90;86.03;98160.23;105763;1280;138773;-76
2022/04/10 05:50:22;;;;;;;40.90;26.80;;;;;;;0.95;85.75;98160.20;105748;1279;23465;-76
2022/04/10 05:53:03;;;;;;;36.40;22.80;;;;;;;1.01;85.90;98161.66;105666;1280;138761;-77
2022/04/10 05:55:32;;;;;;;38.80;24.60;;;;;;;1.07;85.75;98163.04;105697;1281;22708;-76
2022/04/10 05:58:03;;;;;;;41.50;25.00;;;;;;;1.14;86.03;98170.20;105618;1281;29112;-77
2022/04/10 06:00:30;;;;;;;43.30;26.70;;;;;;;1.21;85.98;98167.71;105611;1281;137404;-77
2022/04/10 06:03:04;;;;;;;42.90;26.40;;;;;;;1.29;85.89;98171.94;105560;1281;292955;-77
2022/04/10 06:05:32;;;;;;;38.60;23.80;;;;;;;1.39;85.82;98174.58;105592;1280;138490;-79
2022/04/10 06:08:06;;;;;;;33.00;22.20;;;;;;;1.50;85.75;98171.75;105491;1281;22822;-80
2022/04/10 06:10:34;;;;;;;38.20;25.10;;;;;;;1.61;85.56;98171.70;105581;1281;22560;-79
2022/04/10 06:13:09;;;;;;;37.70;24.10;;;;;;;1.69;85.55;98171.73;105549;1280;137183;-81
2022/04/10 06:15:38;;;;;;;39.50;24.40;;;;;;;1.77;85.09;98172.37;105742;1280;22566;-81
2022/04/10 06:18:07;;;;;;;43.60;26.50;;;;;;;1.85;84.97;98175.98;105580;1280;138026;-81
2022/04/10 06:20:35;;;;;;;35.80;22.30;;;;;;;1.92;84.93;98177.06;105800;1280;22568;-81
2022/04/10 06:23:02;;;;;;;38.60;23.30;;;;;;;2.00;84.63;98180.54;105636;1280;137645;-81
2022/04/10 06:25:43;;;;;;;34.80;23.50;;;;;;;2.07;84.53;98179.35;105884;1280;22694;-81
2022/04/10 06:28:11;;;;;;;42.10;25.10;;;;;;;2.18;84.54;98182.64;105796;1280;22673;-81
2022/04/10 06:30:44;;;;;;;34.00;23.10;;;;;;;2.30;84.74;98183.98;105839;1280;138319;-82
2022/04/10 06:33:14;;;;;;;29.70;20.20;;;;;;;2.42;84.29;98187.44;105817;1280;25495;-80
2022/04/10 06:35:42;;;;;;;28.10;19.20;;;;;;;2.54;83.78;98187.20;105801;1280;137581;-79
2022/04/10 06:38:23;;;;;;;29.40;20.80;;;;;;;2.66;83.44;98187.04;105869;1280;25255;-76
2022/04/10 06:41:11;;;;;;;34.30;22.70;;;;;;;2.81;83.47;98189.87;105753;1279;137659;-77
2022/04/10 06:43:38;;;;;;;37.30;24.00;;;;;;;2.95;83.37;98188.95;105587;1279;24295;-77
2022/04/10 06:46:19;;;;;;;35.00;22.70;;;;;;;3.06;82.88;98188.77;105916;1279;25264;-76
2022/04/10 06:49:08;;;;;;;27.00;18.70;;;;;;;3.16;82.56;98190.62;105722;1279;137344;-77
2022/04/10 06:51:36;;;;;;;29.90;18.60;;;;;;;3.26;82.00;98189.36;105808;1279;22572;-77
2022/04/10 06:54:05;;;;;;;29.70;20.50;;;;;;;3.35;81.80;98190.48;105685;1279;137318;-77
2022/04/10 06:56:33;;;;;;;29.70;20.30;;;;;;;3.43;81.59;98188.51;105657;1279;24354;-77
2022/04/10 06:59:01;;;;;;;31.30;20.30;;;;;;;3.51;81.27;98192.66;105963;1279;137278;-77
2022/04/10 07:01:28;;;;;;;34.40;22.20;;;;;;;3.56;80.59;98192.17;105941;1280;22542;-77
2022/04/10 07:03:55;;;;;;;30.30;20.10;;;;;;;3.64;80.25;98199.17;106408;1280;22685;-76
2022/04/10 07:06:26;;;;;;;32.30;19.50;;;;;;;3.73;80.22;98199.53;106404;1280;138287;-76
2022/04/10 07:08:54;;;;;;;30.20;19.00;;;;;;;3.81;79.82;98199.30;106272;1279;25446;-77
2022/04/10 07:11:26;;;;;;;24.30;17.60;;;;;;;3.87;79.42;98198.79;106090;1279;137536;-77
2022/04/10 07:13:53;;;;;;;28.10;17.90;;;;;;;3.90;78.84;98201.94;106390;1279;25274;-77
2022/04/10 07:16:20;;;;;;;28.30;18.20;;;;;;;3.93;78.56;98202.89;106192;1280;24245;-76
2022/04/10 07:19:01;;;;;;;29.50;15.50;;;;;;;3.98;78.35;98208.61;105984;1280;137548;-76
2022/04/10 07:24:12;;;;;;;26.30;16.20;;;;;;;3.98;77.57;98210.13;106043;1280;138095;-75
2022/04/10 07:26:44;;;;;;;23.80;16.00;;;;;;;4.02;77.62;98213.77;106436;1280;22563;-76
2022/04/10 07:29:27;;;;;;;24.10;17.60;;;;;;;4.07;77.64;98218.34;106243;1280;137348;-75
2022/04/10 07:31:54;;;;;;;25.50;16.20;;;;;;;4.14;77.43;98223.71;106352;1280;22632;-74
2022/04/10 07:34:21;;;;;;;19.50;13.80;;;;;;;4.21;77.51;98223.79;106171;1280;25488;-75
2022/04/10 07:36:57;;;;;;;25.60;17.90;;;;;;;4.28;76.98;98227.23;106183;1280;137109;-74
2022/04/10 07:39:25;;;;;;;22.10;15.30;;;;;;;4.33;77.10;98225.77;106309;1280;23912;-74
2022/04/10 07:41:58;;;;;;;24.30;16.40;;;;;;;4.38;76.40;98221.80;105804;1280;138318;-74
2022/04/10 07:44:29;;;;;;;23.30;15.00;;;;;;;4.43;76.41;98221.97;105829;1280;25247;-74
2022/04/10 07:49:37;;;;;;;19.50;14.90;;;;;;;4.41;75.19;98229.02;105791;1279;22538;-73
2022/04/10 07:52:06;;;;;;;16.00;12.00;;;;;;;4.35;74.94;98233.85;105905;1279;22538;-73
2022/04/10 07:54:48;;;;;;;20.70;12.60;;;;;;;4.28;73.87;98230.70;105834;1279;137829;-73
2022/04/10 07:57:16;;;;;;;19.30;13.50;;;;;;;4.27;74.30;98233.98;105659;1279;24274;-73
2022/04/10 07:59:44;;;;;;;20.30;14.00;;;;;;;4.33;75.40;98236.95;105678;1279;137104;-73
2022/04/10 08:02:11;;;;;;;23.70;14.70;;;;;;;4.45;75.17;98243.77;105688;1280;22531;-72
2022/04/10 08:04:39;;;;;;;21.00;14.00;;;;;;;4.54;75.36;98238.02;105640;1280;24276;-72
2022/04/10 08:07:35;;;;;;;19.70;13.00;;;;;;;4.60;74.73;98243.41;105666;1280;23960;-72
2022/04/10 08:10:02;;;;;;;16.60;12.20;;;;;;;4.64;74.78;98244.67;105601;1279;25438;-72
2022/04/10 08:12:29;;;;;;;20.30;14.30;;;;;;;4.68;74.39;98246.28;105776;1279;138292;-72
2022/04/10 08:15:11;;;;;;;18.20;13.30;;;;;;;4.75;74.69;98244.61;105469;1279;22578;-72
2022/04/10 08:17:38;;;;;;;21.70;14.40;;;;;;;4.86;74.87;98241.45;105703;1280;140164;-72
2022/04/10 08:20:07;;;;;;;21.80;13.30;;;;;;;4.97;74.33;98241.58;105677;1279;22545;-72
2022/04/10 08:22:36;;;;;;;18.40;11.90;;;;;;;5.01;73.34;98239.89;105782;1280;22669;-72
2022/04/10 08:25:08;;;;;;;18.10;13.10;;;;;;;5.07;73.15;98242.86;105797;1280;138064;-72
2022/04/10 08:27:36;;;;;;;17.40;11.30;;;;;;;5.15;73.15;98244.44;105855;1279;22832;-72
2022/04/10 08:30:05;;;;;;;16.30;9.10;;;;;;;5.22;71.90;98246.94;105763;1279;137191;-72
2022/04/10 08:32:40;;;;;;;10.00;8.30;;;;;;;5.19;71.00;98248.23;105839;1281;22544;-72
2022/04/10 08:35:21;;;;;;;14.00;8.40;;;;;;;5.15;70.38;98250.96;105611;1280;137990;-72
2022/04/10 08:37:48;;;;;;;16.70;11.30;;;;;;;5.23;71.07;98253.16;105925;1279;22701;-72
2022/04/10 08:40:15;;;;;;;15.90;10.80;;;;;;;5.41;71.83;98252.65;105750;1279;24351;-72
2022/04/10 08:43:00;;;;;;;17.10;10.00;;;;;;;5.61;71.41;98246.29;105609;1279;138515;-71
2022/04/10 08:45:27;;;;;;;16.80;11.40;;;;;;;5.77;70.91;98251.09;105796;1281;24277;-73
2022/04/10 08:47:56;;;;;;;14.70;8.50;;;;;;;5.84;70.75;98252.73;105747;1279;137500;-71
2022/04/10 08:50:24;;;;;;;15.20;8.40;;;;;;;5.89;69.94;98252.81;105813;1280;22650;-73
2022/04/10 08:52:54;;;;;;;11.70;6.60;;;;;;;6.00;70.23;98251.23;105738;1280;25295;-73
2022/04/10 08:55:21;;;;;;;9.20;6.70;;;;;;;6.15;68.86;98254.09;105673;1279;137657;-73
2022/04/10 08:57:48;;;;;;;11.40;7.20;;;;;;;6.33;68.66;98251.98;105768;1280;24232;-73
2022/04/10 09:00:17;;;;;;;15.10;7.10;;;;;;;6.45;67.21;98251.45;105648;1279;137698;-72
2022/04/10 09:02:51;;;;;;;12.70;7.30;;;;;;;6.61;66.44;98252.70;105795;1281;22604;-72
2022/04/10 09:05:19;;;;;;;12.60;6.50;;;;;;;6.73;66.00;98252.62;105579;1279;137179;-71
2022/04/10 09:08:11;;;;;;;8.80;6.00;;;;;;;6.86;65.82;98255.17;105810;1281;22610;-72
2022/04/10 09:10:59;;;;;;;14.50;7.20;;;;;;;6.97;66.02;98254.04;106178;1279;22581;-72
2022/04/10 09:13:31;;;;;;;14.50;6.20;;;;;;;7.08;65.11;98253.27;105994;1279;137001;-75
2022/04/10 09:16:10;;;;;;;9.50;5.50;;;;;;;7.13;63.57;98260.67;106396;1279;22544;-73
2022/04/10 09:18:49;;;;;;;8.50;5.00;;;;;;;7.21;62.28;98259.38;106060;1280;137077;-72
2022/04/10 09:21:19;;;;;;;11.00;7.50;;;;;;;7.13;62.97;98258.05;106131;1279;22575;-72
2022/04/10 09:24:04;;;;;;;11.00;5.60;;;;;;;7.05;64.12;98253.39;105766;1280;137106;-72
2022/04/10 09:26:45;;;;;;;7.70;6.00;;;;;;;6.99;62.36;98250.30;105720;1279;22629;-72
2022/04/10 09:29:14;;;;;;;9.30;5.70;;;;;;;7.10;63.64;98249.67;105730;1281;137506;-72
2022/04/10 09:31:42;;;;;;;8.70;4.20;;;;;;;7.19;63.76;98251.18;105852;1279;25374;-72
2022/04/10 09:34:11;;;;;;;8.20;3.90;;;;;;;7.18;61.57;98250.56;105788;1279;22755;-72
2022/04/10 09:36:43;;;;;;;9.40;4.60;;;;;;;7.08;61.62;98247.96;105758;1279;136707;-72
2022/04/10 09:39:12;;;;;;;6.10;4.50;;;;;;;7.03;61.12;98248.25;105804;1279;24269;-72
2022/04/10 09:41:42;;;;;;;11.80;5.90;;;;;;;7.03;62.02;98249.67;105706;1279;138879;-72
2022/04/10 09:44:22;;;;;;;11.80;4.80;;;;;;;7.02;61.88;98251.02;105817;1279;23174;-72
2022/04/10 09:47:06;;;;;;;7.20;4.30;;;;;;;6.98;61.62;98249.83;105838;1281;24327;-72
2022/04/10 09:49:41;;;;;;;7.80;3.90;;;;;;;7.15;62.12;98248.90;105692;1281;136720;-72
2022/04/10 09:52:09;;;;;;;9.90;4.50;;;;;;;7.43;62.77;98251.41;106091;1279;22570;-72
2022/04/10 09:54:38;;;;;;;9.90;4.30;;;;;;;7.70;61.74;98249.77;105815;1279;136742;-72
2022/04/10 09:57:09;;;;;;;12.60;4.90;;;;;;;7.84;60.87;98245.76;105829;1280;22551;-72
2022/04/10 09:59:40;;;;;;;9.30;4.50;;;;;;;7.88;59.38;98244.06;105750;1280;137510;-72
2022/04/10 10:02:09;;;;;;;6.00;4.00;;;;;;;7.88;60.13;98239.43;105815;1279;22535;-72
2022/04/10 10:04:37;;;;;;;8.00;3.90;;;;;;;7.85;59.50;98243.16;105929;1280;24452;-72
2022/04/10 10:07:09;;;;;;;8.30;3.50;;;;;;;7.74;58.79;98245.00;105799;1280;136767;-72
2022/04/10 10:09:37;;;;;;;6.30;4.20;;;;;;;7.54;59.29;98252.34;105846;1280;22556;-71
2022/04/10 10:12:06;;;;;;;7.30;3.20;;;;;;;7.17;61.11;98261.80;105637;1279;136840;-71
2022/04/10 10:14:47;;;;;;;7.10;3.50;;;;;;;6.90;62.47;98256.98;105943;1279;22570;-71
2022/04/10 10:17:14;;;;;;;9.70;3.40;;;;;;;6.75;62.74;98253.89;105604;1279;137001;-71
2022/04/10 10:19:56;;;;;;;4.60;2.90;;;;;;;6.57;62.32;98249.50;105872;1279;23058;-71
2022/04/10 10:22:37;;;;;;;7.40;3.00;;;;;;;6.39;60.91;98247.84;105945;1279;22544;-71
2022/04/10 10:25:19;;;;;;;4.80;2.30;;;;;;;6.32;62.00;98252.58;105626;1280;137141;-71
2022/04/10 10:27:52;;;;;;;9.20;3.90;;;;;;;6.25;62.99;98253.71;105853;1280;24498;-71
2022/04/10 10:30:30;;;;;;;7.10;3.50;;;;;;;6.23;64.28;98260.68;105738;1279;136870;-72
2022/04/10 10:33:19;;;;;;;5.20;3.30;;;;;;;6.24;65.33;98261.58;105693;1280;22567;-71
2022/04/10 10:35:51;;;;;;;6.60;3.20;;;;;;;6.40;65.40;98258.08;105606;1280;137386;-72
2022/04/10 10:38:27;;;;;;;4.30;3.30;;;;;;;6.44;66.40;98270.80;105980;1280;22604;-71
2022/04/10 10:41:17;;;;;;;5.40;3.80;;;;;;;6.29;68.76;98273.31;105861;1280;25266;-72
2022/04/10 10:43:45;;;;;;;6.30;3.80;;;;;;;6.21;69.85;98272.09;105702;1280;136627;-73
2022/04/10 10:46:32;;;;;;;5.60;2.60;;;;;;;6.24;69.93;98271.95;105847;1280;22540;-71
2022/04/10 10:49:16;;;;;;;4.00;2.30;;;;;;;6.34;69.79;98272.98;105582;1279;137550;-73
2022/04/10 10:51:55;;;;;;;3.50;2.40;;;;;;;6.41;70.03;98275.40;105778;1279;22572;-72
2022/04/10 10:54:30;;;;;;;2.70;2.40;;;;;;;6.46;69.72;98278.43;105744;1279;137328;-71
2022/04/10 10:56:58;;;;;;;2.30;1.70;;;;;;;6.61;68.55;98270.56;105713;1279;25272;-71
2022/04/10 10:59:32;;;;;;;3.10;1.90;;;;;;;6.78;67.72;98266.37;105860;1279;136983;-71
2022/04/10 11:02:13;;;;;;;3.10;2.10;;;;;;;6.94;65.79;98258.11;105735;1279;25496;-71
2022/04/10 11:04:40;;;;;;;8.30;3.20;;;;;;;7.12;63.64;98256.23;105702;1279;30570;-71
2022/04/10 11:07:14;;;;;;;7.70;2.80;;;;;;;7.36;63.87;98255.76;105698;1279;136910;-71
2022/04/10 11:10:05;;;;;;;5.40;3.10;;;;;;;7.58;62.20;98257.61;105714;1279;23199;-71
2022/04/10 11:12:35;;;;;;;3.80;2.60;;;;;;;7.71;61.29;98253.89;105316;1283;137517;-71
2022/04/10 11:15:18;;;;;;;4.70;2.40;;;;;;;7.74;60.18;98251.35;105467;1281;25263;-71
2022/04/10 11:17:46;;;;;;;4.70;2.10;;;;;;;7.74;59.43;98255.84;105449;1280;137057;-71
2022/04/10 11:20:16;;;;;;;4.10;2.40;;;;;;;7.66;59.84;98259.42;105717;1279;22596;-71
2022/04/10 11:22:49;;;;;;;3.70;1.80;;;;;;;7.52;61.44;98252.99;105455;1280;22550;-72
2022/04/10 11:25:18;;;;;;;3.70;2.30;;;;;;;7.39;59.88;98258.08;105493;1280;136838;-72
2022/04/10 11:27:56;;;;;;;2.90;2.10;;;;;;;7.19;59.86;98259.05;105691;1280;25405;-72
2022/04/10 11:30:39;;;;;;;3.30;1.30;;;;;;;7.09;61.12;98260.81;105438;1280;136798;-71
2022/04/10 11:33:07;;;;;;;3.50;1.40;;;;;;;7.23;60.02;98258.17;106173;1280;22997;-71
2022/04/10 11:35:36;;;;;;;3.20;1.30;;;;;;;7.36;57.12;98258.92;105641;1280;137144;-73
2022/04/10 11:38:15;;;;;;;2.30;1.50;;;;;;;7.46;56.43;98256.41;105864;1280;22702;-73
2022/04/10 11:40:47;;;;;;;4.40;1.90;;;;;;;7.58;56.17;98254.15;105676;1280;25236;-71
2022/04/10 11:43:17;;;;;;;3.00;1.70;;;;;;;7.82;57.64;98249.34;105556;1280;136905;-73
2022/04/10 11:45:48;;;;;;;4.10;2.00;;;;;;;7.91;57.01;98251.08;105793;1279;24907;-71
2022/04/10 11:48:16;;;;;;;5.60;1.70;;;;;;;7.74;57.29;98252.88;105785;1280;136752;-71